Time;durP1;ratioP1;P1;durP2;ratioP2;P2;SDS_P1;SDS_P2;PMS_P1;PMS_P2;Temp;Humidity;BMP_temperature;BMP_pressure;BME280_temperature;BME280_humidity;BME280_pressure;Samples;Min_cycle;Max_cycle;Signal;HPM_P1;HPM_P2
2023/07/09 00:02:22;;;;;;;7.60;4.57;;;25.60;47.90;;;;;;7645227;22;80763;-74
2023/07/09 00:05:24;;;;;;;7.97;4.50;;;25.60;48.20;;;;;;7643850;22;80602;-76
2023/07/09 00:08:24;;;;;;;8.88;5.43;;;25.60;48.40;;;;;;7643775;22;80446;-72
2023/07/09 00:11:25;;;;;;;8.35;5.30;;;25.60;48.50;;;;;;7643734;22;81397;-70
2023/07/09 00:14:25;;;;;;;9.50;5.90;;;25.60;48.30;;;;;;7642872;22;80907;-55
2023/07/09 00:17:26;;;;;;;10.20;5.90;;;25.60;48.30;;;;;;7616778;22;80580;-56
2023/07/09 00:20:26;;;;;;;11.32;5.60;;;25.60;48.40;;;;;;7642735;22;81075;-52
2023/07/09 00:23:27;;;;;;;8.80;6.32;;;25.60;48.40;;;;;;7643027;22;80438;-51
2023/07/09 00:26:27;;;;;;;9.38;6.60;;;25.60;48.40;;;;;;7642329;22;80358;-54
2023/07/09 00:29:28;;;;;;;13.18;6.15;;;25.60;48.30;;;;;;7616412;22;80879;-53
2023/07/09 00:32:29;;;;;;;11.43;5.65;;;25.60;48.20;;;;;;7643854;22;80942;-69
2023/07/09 00:35:30;;;;;;;9.07;5.97;;;25.60;48.30;;;;;;7643900;22;81269;-71
2023/07/09 00:38:38;;;;;;;12.50;6.32;;;25.60;48.20;;;;;;7642422;22;80796;-73
2023/07/09 00:41:39;;;;;;;8.27;5.78;;;25.60;48.30;;;;;;7616782;22;81561;-74
2023/07/09 00:44:43;;;;;;;11.85;6.35;;;25.60;48.30;;;;;;7637075;22;80744;-75
2023/07/09 00:47:44;;;;;;;11.45;6.00;;;25.70;48.20;;;;;;7638783;22;81535;-80
2023/07/09 00:50:46;;;;;;;8.73;5.65;;;25.60;48.10;;;;;;7639505;22;80471;-75
2023/07/09 00:53:46;;;;;;;9.13;5.60;;;25.60;48.10;;;;;;7640831;22;80969;-73
2023/07/09 00:56:51;;;;;;;8.80;5.63;;;25.60;48.00;;;;;;7640138;22;80838;-70
2023/07/09 00:59:51;;;;;;;8.50;5.93;;;25.60;47.80;;;;;;7614969;22;82523;-72
2023/07/09 01:02:52;;;;;;;9.68;5.90;;;25.60;47.70;;;;;;7644986;22;81428;-72
2023/07/09 01:05:55;;;;;;;7.75;5.55;;;25.60;47.80;;;;;;7644152;22;80095;-77
2023/07/09 01:08:55;;;;;;;11.50;6.68;;;25.50;47.90;;;;;;7640757;22;80420;-55
2023/07/09 01:12:00;;;;;;;7.85;5.60;;;25.50;48.10;;;;;;7643411;22;80885;-54
2023/07/09 01:15:01;;;;;;;11.50;6.17;;;25.50;48.10;;;;;;7641816;22;80355;-53
2023/07/09 01:18:01;;;;;;;10.02;6.22;;;25.50;48.30;;;;;;7612438;22;83677;-54
2023/07/09 01:21:03;;;;;;;14.38;5.75;;;25.50;48.20;;;;;;7612082;22;83805;-55
2023/07/09 01:24:03;;;;;;;10.13;5.70;;;25.40;48.10;;;;;;7609310;22;81839;-56
2023/07/09 01:27:04;;;;;;;8.88;5.50;;;25.40;48.30;;;;;;7638308;22;80604;-58
2023/07/09 01:30:06;;;;;;;8.82;6.13;;;25.40;48.40;;;;;;7640193;22;80419;-58
2023/07/09 01:33:06;;;;;;;10.02;6.13;;;25.40;48.50;;;;;;7641480;22;80331;-57
2023/07/09 01:36:08;;;;;;;7.15;5.10;;;25.40;48.40;;;;;;7616327;22;83081;-57
2023/07/09 01:39:09;;;;;;;9.13;5.65;;;25.40;48.40;;;;;;7637315;22;80823;-58
2023/07/09 01:42:09;;;;;;;11.45;6.13;;;25.40;48.40;;;;;;7616341;22;81328;-56
2023/07/09 01:45:13;;;;;;;11.10;5.53;;;25.40;48.20;;;;;;7642592;22;80442;-58
2023/07/09 01:48:15;;;;;;;9.57;4.88;;;25.40;47.90;;;;;;7642454;22;80776;-56
2023/07/09 01:51:16;;;;;;;7.30;5.07;;;25.40;47.80;;;;;;7615821;22;83227;-59
2023/07/09 01:54:17;;;;;;;6.43;4.38;;;25.40;47.30;;;;;;7641479;22;80884;-56
2023/07/09 01:57:22;;;;;;;8.43;4.95;;;25.30;47.60;;;;;;7616623;22;82362;-55
2023/07/09 02:00:23;;;;;;;7.57;4.43;;;25.30;47.50;;;;;;7614825;22;87595;-53
2023/07/09 02:03:26;;;;;;;7.32;4.60;;;25.30;47.40;;;;;;7643309;22;81252;-60
2023/07/09 02:06:31;;;;;;;8.10;4.75;;;25.30;47.50;;;;;;7642747;22;80923;-62
2023/07/09 02:09:32;;;;;;;7.03;4.63;;;25.30;47.50;;;;;;7615956;22;81358;-62
2023/07/09 02:12:32;;;;;;;8.02;4.57;;;25.30;47.50;;;;;;7615905;22;83052;-61
2023/07/09 02:15:33;;;;;;;7.35;4.35;;;25.30;47.50;;;;;;7616078;22;83601;-60
2023/07/09 02:18:33;;;;;;;8.73;4.80;;;25.20;47.30;;;;;;7614472;22;80467;-63
2023/07/09 02:21:34;;;;;;;5.57;3.70;;;25.20;47.10;;;;;;7616913;22;81328;-77
2023/07/09 02:24:36;;;;;;;9.40;4.10;;;25.10;47.00;;;;;;7643243;22;80437;-80
2023/07/09 02:27:37;;;;;;;6.53;3.83;;;25.10;47.00;;;;;;7644329;22;80278;-77
2023/07/09 02:30:37;;;;;;;6.53;4.35;;;25.00;46.80;;;;;;7642320;22;81680;-72
2023/07/09 02:33:39;;;;;;;8.63;4.03;;;24.70;46.80;;;;;;7615894;22;83268;-74
2023/07/09 02:36:42;;;;;;;5.38;4.05;;;24.40;47.40;;;;;;7641640;22;81105;-72
2023/07/09 02:39:43;;;;;;;5.30;4.07;;;24.20;47.70;;;;;;7615696;22;83315;-75
2023/07/09 02:42:43;;;;;;;7.68;4.07;;;24.00;48.10;;;;;;7615472;22;83435;-76
2023/07/09 02:45:44;;;;;;;7.00;4.22;;;24.00;48.30;;;;;;7615873;22;83330;-75
2023/07/09 02:48:45;;;;;;;7.50;4.53;;;24.10;48.30;;;;;;7614765;22;83299;-75
2023/07/09 02:51:46;;;;;;;7.28;4.15;;;24.30;48.20;;;;;;7616970;22;81402;-73
2023/07/09 02:54:46;;;;;;;7.75;4.50;;;24.40;48.10;;;;;;7642949;22;80951;-76
2023/07/09 02:57:47;;;;;;;8.95;4.90;;;24.40;48.00;;;;;;7642451;22;80328;-60
2023/07/09 03:00:51;;;;;;;5.00;3.83;;;24.40;47.90;;;;;;7642006;22;80482;-61
2023/07/09 03:03:52;;;;;;;6.13;4.47;;;24.30;47.90;;;;;;7642363;22;80232;-60
2023/07/09 03:06:53;;;;;;;8.43;4.32;;;24.10;48.20;;;;;;7642319;22;80338;-62
2023/07/09 03:09:53;;;;;;;8.40;4.70;;;24.00;48.40;;;;;;7641980;22;80504;-62
2023/07/09 03:12:54;;;;;;;7.85;4.25;;;24.00;48.60;;;;;;7616096;22;82099;-61
2023/07/09 03:15:55;;;;;;;8.10;4.40;;;24.00;48.60;;;;;;7643001;22;80512;-61
2023/07/09 03:18:55;;;;;;;4.78;4.07;;;24.10;48.60;;;;;;7641724;22;80370;-61
2023/07/09 03:21:56;;;;;;;6.38;4.60;;;24.20;48.50;;;;;;7642167;22;80640;-63
2023/07/09 03:24:56;;;;;;;7.97;4.53;;;24.30;48.50;;;;;;7642178;22;80907;-62
2023/07/09 03:27:57;;;;;;;7.60;4.50;;;24.40;48.50;;;;;;7642201;22;80972;-62
2023/07/09 03:30:57;;;;;;;7.75;4.45;;;24.50;48.50;;;;;;7617226;22;83607;-64
2023/07/09 03:33:58;;;;;;;7.63;4.13;;;24.50;48.10;;;;;;7643528;22;80041;-65
2023/07/09 03:36:58;;;;;;;6.25;3.80;;;24.40;47.90;;;;;;7644273;22;81334;-64
2023/07/09 03:39:59;;;;;;;7.20;4.55;;;24.40;48.80;;;;;;7643924;22;80682;-65
2023/07/09 03:43:00;;;;;;;7.32;4.57;;;24.30;48.30;;;;;;7644076;22;81053;-63
2023/07/09 03:46:00;;;;;;;7.47;4.95;;;24.20;48.60;;;;;;7643541;22;80688;-62
2023/07/09 03:49:01;;;;;;;5.88;3.92;;;24.00;48.80;;;;;;7644633;22;81122;-62
2023/07/09 03:52:01;;;;;;;5.28;4.13;;;24.00;48.90;;;;;;7642123;22;80261;-60
2023/07/09 03:55:04;;;;;;;6.30;4.00;;;24.00;48.90;;;;;;7644070;22;80537;-62
2023/07/09 03:58:04;;;;;;;10.30;4.63;;;24.10;48.90;;;;;;7644309;22;82091;-62
2023/07/09 04:01:05;;;;;;;9.40;4.00;;;24.20;48.80;;;;;;7642551;22;80835;-62
2023/07/09 04:04:05;;;;;;;5.03;3.65;;;24.30;48.70;;;;;;7641546;22;80295;-60
2023/07/09 04:07:06;;;;;;;7.88;4.03;;;24.30;48.70;;;;;;7613827;22;82326;-63
2023/07/09 04:10:06;;;;;;;6.60;3.60;;;24.40;48.70;;;;;;7637208;22;80629;-61
2023/07/09 04:13:07;;;;;;;7.60;3.70;;;24.50;48.70;;;;;;7641881;22;80763;-53
2023/07/09 04:16:07;;;;;;;9.13;4.53;;;24.60;48.60;;;;;;7639543;22;81440;-54
2023/07/09 04:19:08;;;;;;;6.45;3.90;;;24.60;48.70;;;;;;7643304;22;80832;-52
2023/07/09 04:22:08;;;;;;;5.68;3.95;;;24.70;48.50;;;;;;7643039;22;80797;-55
2023/07/09 04:25:09;;;;;;;9.02;3.90;;;24.70;48.50;;;;;;7642403;22;80769;-55
2023/07/09 04:28:10;;;;;;;8.02;4.07;;;24.70;48.40;;;;;;7642539;22;80104;-56
2023/07/09 04:31:11;;;;;;;11.05;3.90;;;24.70;48.40;;;;;;7643225;22;81214;-53
2023/07/09 04:34:11;;;;;;;8.75;3.90;;;24.60;48.30;;;;;;7643315;22;80737;-50
2023/07/09 04:37:12;;;;;;;6.63;4.22;;;24.60;48.50;;;;;;7642450;22;79979;-51
2023/07/09 04:40:12;;;;;;;5.07;3.83;;;24.50;48.50;;;;;;7643294;22;80540;-52
2023/07/09 04:43:13;;;;;;;6.53;3.13;;;24.40;48.50;;;;;;7641571;22;80551;-54
2023/07/09 04:46:13;;;;;;;5.40;3.30;;;24.50;48.40;;;;;;7642799;22;80964;-52
2023/07/09 04:49:14;;;;;;;6.47;3.72;;;24.60;48.60;;;;;;7616135;22;83509;-60
2023/07/09 04:52:15;;;;;;;6.57;4.20;;;24.60;48.60;;;;;;7641429;22;81246;-62
2023/07/09 04:55:18;;;;;;;6.85;3.90;;;24.70;48.60;;;;;;7642095;22;80585;-63
2023/07/09 04:58:19;;;;;;;5.20;3.60;;;24.70;48.30;;;;;;7632896;22;81175;-61
2023/07/09 05:01:19;;;;;;;14.82;4.30;;;24.80;48.30;;;;;;7635815;22;80388;-61
2023/07/09 05:04:20;;;;;;;8.27;3.92;;;24.90;48.40;;;;;;7635678;22;81042;-60
2023/07/09 05:07:20;;;;;;;6.60;4.03;;;24.90;48.20;;;;;;7638928;22;80347;-62
2023/07/09 05:10:21;;;;;;;9.55;4.00;;;24.90;48.10;;;;;;7641993;22;80675;-63
2023/07/09 05:13:22;;;;;;;6.97;3.80;;;25.00;48.30;;;;;;7641014;22;80777;-63
2023/07/09 05:16:22;;;;;;;7.15;3.72;;;25.00;48.10;;;;;;7641548;22;80137;-60
2023/07/09 05:19:23;;;;;;;12.02;3.45;;;25.10;48.30;;;;;;7637603;22;80297;-60
2023/07/09 05:22:23;;;;;;;9.75;3.90;;;25.10;48.30;;;;;;7639180;22;81407;-63
2023/07/09 05:25:24;;;;;;;11.50;3.50;;;25.20;48.60;;;;;;7637961;22;80737;-72
2023/07/09 05:28:24;;;;;;;4.57;3.40;;;25.20;48.50;;;;;;7643959;22;81202;-71
2023/07/09 05:31:25;;;;;;;4.90;3.88;;;25.30;48.40;;;;;;7641165;22;81024;-69
2023/07/09 05:34:25;;;;;;;5.82;3.60;;;25.20;48.50;;;;;;7640787;22;81543;-64
2023/07/09 05:37:26;;;;;;;4.55;3.47;;;25.30;48.80;;;;;;7641920;22;80936;-71
2023/07/09 05:40:26;;;;;;;7.05;3.30;;;25.30;48.60;;;;;;7644414;22;81203;-67
2023/07/09 05:43:27;;;;;;;5.07;3.42;;;25.30;48.70;;;;;;7643704;22;81259;-67
2023/07/09 05:46:27;;;;;;;13.35;3.42;;;25.30;49.00;;;;;;7643121;22;80311;-69
2023/07/09 05:49:28;;;;;;;6.03;3.17;;;25.30;49.10;;;;;;7642122;22;80571;-68
2023/07/09 05:52:29;;;;;;;5.32;3.33;;;25.30;49.40;;;;;;7643301;22;81239;-68
2023/07/09 05:55:29;;;;;;;5.85;3.85;;;25.30;49.40;;;;;;7644607;22;80981;-69
2023/07/09 05:58:30;;;;;;;8.55;4.15;;;25.30;49.60;;;;;;7643811;22;80731;-67
2023/07/09 06:01:30;;;;;;;9.23;4.75;;;25.30;49.70;;;;;;7644520;22;80629;-64
2023/07/09 06:04:31;;;;;;;21.70;7.13;;;25.30;49.90;;;;;;7643240;22;80389;-62
2023/07/09 06:07:31;;;;;;;21.38;8.02;;;25.40;50.70;;;;;;7642789;22;80910;-61
2023/07/09 06:10:32;;;;;;;25.15;7.88;;;25.40;50.80;;;;;;7642044;22;80480;-63
2023/07/09 06:13:33;;;;;;;19.00;6.93;;;25.40;51.20;;;;;;7642834;22;80323;-60
2023/07/09 06:16:33;;;;;;;12.38;5.60;;;25.40;51.50;;;;;;7641059;22;80881;-61
2023/07/09 06:19:34;;;;;;;16.65;6.32;;;25.40;51.40;;;;;;7642677;22;81203;-58
2023/07/09 06:22:34;;;;;;;11.82;5.18;;;25.50;51.40;;;;;;7639214;22;80505;-58
2023/07/09 06:25:35;;;;;;;8.63;4.75;;;25.50;51.20;;;;;;7637004;22;80900;-57
2023/07/09 06:28:35;;;;;;;9.82;4.35;;;25.50;51.30;;;;;;7641208;22;80203;-59
2023/07/09 06:31:37;;;;;;;12.25;4.45;;;25.50;51.30;;;;;;7640392;22;80926;-57
2023/07/09 06:34:37;;;;;;;5.38;3.85;;;25.50;50.90;;;;;;7641288;22;80452;-58
2023/07/09 06:37:38;;;;;;;8.18;4.53;;;25.50;50.50;;;;;;7641781;22;80153;-61
2023/07/09 06:40:38;;;;;;;5.80;3.45;;;25.40;50.00;;;;;;7642306;22;81081;-61
2023/07/09 06:43:39;;;;;;;7.13;3.80;;;25.40;50.00;;;;;;7641987;22;81198;-64
2023/07/09 06:46:39;;;;;;;4.85;3.55;;;25.40;50.30;;;;;;7641629;22;80914;-59
2023/07/09 06:49:40;;;;;;;6.90;3.20;;;25.40;49.80;;;;;;7641202;22;81026;-61
2023/07/09 06:52:41;;;;;;;4.60;3.25;;;25.50;49.90;;;;;;7639732;22;83469;-63
2023/07/09 06:55:41;;;;;;;5.78;3.38;;;25.60;49.20;;;;;;7640892;22;80467;-55
2023/07/09 06:58:42;;;;;;;4.03;3.15;;;25.60;49.00;;;;;;7639713;22;80521;-59
2023/07/09 07:01:43;;;;;;;6.28;3.70;;;25.60;48.20;;;;;;7538569;22;81992;-56
2023/07/09 07:04:43;;;;;;;5.32;3.40;;;25.60;48.50;;;;;;7486369;22;82417;-59
2023/07/09 07:07:44;;;;;;;5.72;3.53;;;25.70;48.60;;;;;;7639739;22;80381;-58
2023/07/09 07:10:46;;;;;;;6.20;3.60;;;25.70;48.50;;;;;;7643051;22;80524;-59
2023/07/09 07:13:51;;;;;;;6.82;3.22;;;25.70;48.60;;;;;;7642699;22;80295;-58
2023/07/09 07:16:51;;;;;;;4.80;2.95;;;25.70;48.40;;;;;;7643041;22;80197;-66
2023/07/09 07:19:52;;;;;;;5.75;3.63;;;25.80;49.10;;;;;;7641513;22;80427;-64
2023/07/09 07:22:53;;;;;;;6.55;3.33;;;25.90;49.50;;;;;;7636138;22;80996;-66
2023/07/09 07:25:54;;;;;;;7.10;3.70;;;25.80;49.00;;;;;;7639452;22;80508;-67
2023/07/09 07:28:54;;;;;;;5.35;3.30;;;25.80;49.00;;;;;;7647891;22;80829;-68
2023/07/09 07:31:55;;;;;;;4.55;3.53;;;25.80;48.60;;;;;;7647837;22;80872;-66
2023/07/09 07:34:55;;;;;;;6.32;3.72;;;25.80;48.80;;;;;;7646325;22;80724;-64
2023/07/09 07:37:56;;;;;;;6.30;3.83;;;25.90;48.60;;;;;;7639952;22;80416;-63
2023/07/09 07:40:57;;;;;;;8.40;4.07;;;25.90;48.50;;;;;;7618762;22;83873;-61
2023/07/09 07:43:57;;;;;;;5.95;3.67;;;25.90;48.70;;;;;;7645599;22;80561;-61
2023/07/09 07:46:58;;;;;;;4.75;3.67;;;26.00;49.30;;;;;;7643578;22;80475;-59
2023/07/09 07:49:58;;;;;;;10.98;4.57;;;26.00;49.10;;;;;;7646515;22;80351;-61
2023/07/09 07:52:59;;;;;;;10.85;3.85;;;26.10;48.80;;;;;;7641909;22;81644;-63
2023/07/09 07:56:02;;;;;;;6.18;3.38;;;26.20;49.10;;;;;;7616817;22;82826;-65
2023/07/09 07:59:03;;;;;;;5.43;3.70;;;26.20;49.00;;;;;;7642310;22;81567;-65
2023/07/09 08:02:03;;;;;;;8.43;3.42;;;26.20;48.70;;;;;;7642775;22;80469;-62
2023/07/09 08:05:05;;;;;;;4.88;3.30;;;26.20;49.10;;;;;;7645494;22;80528;-62
2023/07/09 08:08:05;;;;;;;4.10;3.03;;;26.30;49.30;;;;;;7641523;22;80335;-63
2023/07/09 08:11:07;;;;;;;6.45;4.20;;;26.30;49.40;;;;;;7645732;22;80335;-67
2023/07/09 08:14:08;;;;;;;5.38;3.92;;;26.30;49.60;;;;;;7646392;22;81402;-67
2023/07/09 08:17:08;;;;;;;5.72;3.85;;;26.40;49.40;;;;;;7642860;22;80462;-61
2023/07/09 08:20:09;;;;;;;6.53;3.80;;;26.30;49.70;;;;;;7643986;22;80536;-57
2023/07/09 08:23:09;;;;;;;8.05;3.85;;;26.40;49.70;;;;;;7644808;22;81646;-60
2023/07/09 08:26:10;;;;;;;7.78;3.75;;;26.50;49.60;;;;;;7644759;22;81223;-60
2023/07/09 08:29:10;;;;;;;5.90;4.00;;;26.50;49.80;;;;;;7644168;22;80353;-65
2023/07/09 08:32:11;;;;;;;5.25;3.67;;;26.50;50.30;;;;;;7642615;22;84460;-62
2023/07/09 08:35:12;;;;;;;9.77;4.55;;;26.60;51.40;;;;;;7612454;22;81636;-64
2023/07/09 08:38:12;;;;;;;6.55;4.20;;;26.70;50.50;;;;;;7642242;22;80315;-65
2023/07/09 08:41:13;;;;;;;7.90;3.83;;;26.70;50.00;;;;;;7639564;22;80802;-61
2023/07/09 08:44:13;;;;;;;6.57;4.05;;;26.70;49.50;;;;;;7642308;22;80447;-58
2023/07/09 08:47:14;;;;;;;5.50;3.90;;;26.70;49.30;;;;;;7640355;22;80509;-67
2023/07/09 08:50:14;;;;;;;5.63;3.42;;;26.80;49.20;;;;;;7643721;22;81102;-66
2023/07/09 08:53:15;;;;;;;5.57;3.83;;;26.80;49.20;;;;;;7643537;22;80872;-65
2023/07/09 08:56:15;;;;;;;5.78;3.30;;;26.80;49.30;;;;;;7638207;22;80834;-70
2023/07/09 08:59:16;;;;;;;5.68;3.78;;;26.80;48.90;;;;;;7640034;22;81184;-69
2023/07/09 09:02:16;;;;;;;8.90;3.88;;;26.90;49.00;;;;;;7641048;22;80899;-65
2023/07/09 09:05:16;;;;;;;4.90;3.33;;;26.90;49.00;;;;;;7639911;22;80634;-63
2023/07/09 09:08:17;;;;;;;7.78;3.72;;;26.90;49.30;;;;;;7640014;22;80051;-62
2023/07/09 09:11:17;;;;;;;6.45;3.45;;;26.90;49.10;;;;;;7640145;22;81184;-62
2023/07/09 09:14:18;;;;;;;11.23;4.00;;;26.90;49.10;;;;;;7639700;22;80390;-63
2023/07/09 09:17:18;;;;;;;5.25;3.80;;;26.90;49.10;;;;;;7640382;22;80661;-63
2023/07/09 09:20:21;;;;;;;4.53;3.53;;;26.90;49.10;;;;;;7638372;22;81830;-60
2023/07/09 09:23:21;;;;;;;8.80;4.05;;;27.00;49.00;;;;;;7641142;22;80754;-57
2023/07/09 09:26:22;;;;;;;11.15;3.80;;;26.90;49.00;;;;;;7642479;22;80315;-62
2023/07/09 09:29:22;;;;;;;5.97;3.63;;;26.90;49.10;;;;;;7638536;22;80794;-61
2023/07/09 09:32:23;;;;;;;9.23;4.05;;;26.90;48.60;;;;;;7639864;22;80749;-60
2023/07/09 09:35:23;;;;;;;6.30;4.25;;;26.90;48.90;;;;;;7640935;22;80349;-61
2023/07/09 09:38:24;;;;;;;6.53;3.45;;;27.00;49.00;;;;;;7640686;22;81258;-61
2023/07/09 09:41:24;;;;;;;4.38;3.50;;;27.10;48.80;;;;;;7641789;22;80758;-67
2023/07/09 09:44:25;;;;;;;5.68;3.38;;;27.10;49.00;;;;;;7642388;22;80482;-66
2023/07/09 09:47:25;;;;;;;5.18;3.88;;;27.10;48.70;;;;;;7643039;22;80161;-66
2023/07/09 09:50:26;;;;;;;8.32;3.20;;;27.10;48.50;;;;;;7642972;22;80615;-65
2023/07/09 09:53:26;;;;;;;7.13;3.78;;;27.20;48.00;;;;;;7637735;22;80682;-66
2023/07/09 09:56:27;;;;;;;7.28;3.88;;;27.30;47.80;;;;;;7628448;22;80620;-67
2023/07/09 09:59:27;;;;;;;7.72;3.40;;;27.40;47.20;;;;;;7625555;22;80750;-70
2023/07/09 10:02:28;;;;;;;7.35;3.92;;;27.40;47.80;;;;;;7620658;22;80972;-68
2023/07/09 10:05:28;;;;;;;10.23;4.32;;;27.40;48.60;;;;;;7624895;22;80601;-67
2023/07/09 10:08:29;;;;;;;9.32;4.35;;;27.30;49.10;;;;;;7623906;22;81152;-70
2023/07/09 10:11:30;;;;;;;7.90;4.40;;;27.40;50.10;;;;;;7624382;22;80803;-68
2023/07/09 10:14:31;;;;;;;5.72;3.90;;;27.30;49.40;;;;;;7626241;22;80735;-66
2023/07/09 10:17:31;;;;;;;8.85;4.57;;;27.50;47.20;;;;;;7623018;22;80873;-73
2023/07/09 10:20:32;;;;;;;5.50;4.07;;;27.50;46.50;;;;;;7621552;22;81367;-58
2023/07/09 10:23:32;;;;;;;9.43;3.80;;;27.50;45.90;;;;;;7624836;22;80694;-61
2023/07/09 10:26:33;;;;;;;6.13;4.07;;;27.50;46.30;;;;;;7620248;22;80571;-57
2023/07/09 10:29:33;;;;;;;6.80;3.78;;;27.40;46.40;;;;;;7617164;22;81352;-58
2023/07/09 10:32:34;;;;;;;6.20;3.33;;;27.40;46.00;;;;;;7594150;22;82525;-59
2023/07/09 10:35:34;;;;;;;6.25;3.83;;;27.50;45.10;;;;;;7622336;22;80735;-59
2023/07/09 10:38:35;;;;;;;5.93;4.03;;;27.50;44.60;;;;;;7619225;22;80830;-60
2023/07/09 10:41:35;;;;;;;4.85;3.72;;;27.60;44.80;;;;;;7622125;22;80934;-58
2023/07/09 10:44:36;;;;;;;7.15;4.57;;;27.60;44.80;;;;;;7640184;22;82446;-59
2023/07/09 10:47:36;;;;;;;6.47;3.38;;;27.60;44.80;;;;;;7633791;22;80643;-59
2023/07/09 10:50:37;;;;;;;6.70;3.63;;;27.60;44.80;;;;;;7640227;22;80331;-59
2023/07/09 10:53:37;;;;;;;7.40;4.20;;;27.60;44.80;;;;;;7643434;22;80443;-59
2023/07/09 10:56:38;;;;;;;6.85;3.80;;;27.50;45.60;;;;;;7642668;22;80176;-58
2023/07/09 10:59:38;;;;;;;4.70;3.78;;;27.40;45.60;;;;;;7634557;22;80770;-60
2023/07/09 11:02:39;;;;;;;4.07;3.63;;;27.40;45.30;;;;;;7639572;22;80515;-57
2023/07/09 11:05:40;;;;;;;6.30;4.25;;;27.40;45.40;;;;;;7638033;22;80791;-60
2023/07/09 11:08:40;;;;;;;4.80;3.38;;;27.40;45.90;;;;;;7641281;22;80270;-58
2023/07/09 11:11:41;;;;;;;5.90;4.28;;;27.50;46.10;;;;;;7638829;22;87720;-60
2023/07/09 11:14:43;;;;;;;12.77;4.07;;;27.50;45.60;;;;;;7639407;22;80881;-64
2023/07/09 11:17:45;;;;;;;7.90;4.00;;;27.50;45.10;;;;;;7640003;22;81370;-71
2023/07/09 11:20:46;;;;;;;6.97;4.03;;;27.50;45.60;;;;;;7639617;22;80332;-72
2023/07/09 11:23:46;;;;;;;4.75;3.95;;;27.60;45.90;;;;;;7638967;22;81068;-73
2023/07/09 11:26:47;;;;;;;6.10;4.50;;;27.60;46.60;;;;;;7640536;22;79972;-68
2023/07/09 11:29:47;;;;;;;5.70;4.53;;;27.60;46.50;;;;;;7637652;22;80753;-70
2023/07/09 11:32:48;;;;;;;8.75;5.32;;;27.70;45.90;;;;;;7643226;22;80503;-65
2023/07/09 11:35:48;;;;;;;7.43;3.72;;;27.60;45.40;;;;;;7641115;22;81226;-68
2023/07/09 11:38:49;;;;;;;11.52;4.45;;;27.40;43.80;;;;;;7637827;22;80692;-69
2023/07/09 11:41:49;;;;;;;9.95;4.32;;;27.10;43.50;;;;;;7640793;22;81116;-69
2023/07/09 11:44:50;;;;;;;4.68;3.80;;;26.80;44.00;;;;;;7643343;22;79964;-67
2023/07/09 11:47:51;;;;;;;6.90;4.07;;;26.90;44.30;;;;;;7640822;22;81354;-74
2023/07/09 11:50:51;;;;;;;5.95;4.10;;;27.00;44.50;;;;;;7642810;22;80403;-67
2023/07/09 11:53:52;;;;;;;7.40;4.50;;;27.10;44.80;;;;;;7642762;22;80276;-70
2023/07/09 11:56:52;;;;;;;9.70;4.85;;;27.10;44.40;;;;;;7640530;22;81426;-72
2023/07/09 11:59:53;;;;;;;6.20;4.45;;;27.20;45.00;;;;;;7643685;22;80848;-77
2023/07/09 12:02:53;;;;;;;10.88;4.30;;;27.30;44.60;;;;;;7644297;22;80375;-69
2023/07/09 12:05:54;;;;;;;6.75;4.10;;;27.40;45.70;;;;;;7643125;22;80226;-76
2023/07/09 12:08:54;;;;;;;5.80;4.40;;;27.60;44.00;;;;;;7643156;22;80917;-60
2023/07/09 12:11:55;;;;;;;6.32;4.03;;;27.70;43.80;;;;;;7641909;22;80003;-60
2023/07/09 12:14:55;;;;;;;6.88;4.45;;;27.80;44.70;;;;;;7642520;22;81029;-59
2023/07/09 12:17:56;;;;;;;7.93;4.78;;;27.70;45.70;;;;;;7643794;22;80527;-58
2023/07/09 12:20:56;;;;;;;6.72;4.50;;;27.70;44.60;;;;;;7641770;22;80807;-63
2023/07/09 12:23:57;;;;;;;6.32;4.05;;;27.80;44.90;;;;;;7644018;22;80499;-61
2023/07/09 12:27:01;;;;;;;5.97;4.63;;;27.80;44.30;;;;;;7635491;22;81800;-65
2023/07/09 12:30:01;;;;;;;8.63;4.60;;;27.80;44.10;;;;;;7615936;22;81037;-69
2023/07/09 12:33:02;;;;;;;10.82;5.07;;;27.70;44.30;;;;;;7644840;22;80103;-69
2023/07/09 12:36:02;;;;;;;11.02;6.00;;;27.70;44.60;;;;;;7644898;22;80179;-73
2023/07/09 12:39:03;;;;;;;18.80;6.10;;;27.60;44.30;;;;;;7643016;22;80058;-66
2023/07/09 12:42:03;;;;;;;10.60;5.43;;;27.60;45.50;;;;;;7636660;22;80879;-63
2023/07/09 12:45:04;;;;;;;12.10;4.47;;;27.60;45.20;;;;;;7640157;22;81294;-62
2023/07/09 12:48:04;;;;;;;7.10;4.47;;;27.60;43.60;;;;;;7642781;22;80703;-66
2023/07/09 12:51:05;;;;;;;9.15;4.78;;;27.50;43.40;;;;;;7645270;22;80675;-64
2023/07/09 12:54:05;;;;;;;6.85;4.53;;;27.50;44.20;;;;;;7641104;22;81289;-59
2023/07/09 12:57:06;;;;;;;8.77;4.50;;;27.60;43.90;;;;;;7637582;22;80478;-58
2023/07/09 13:00:07;;;;;;;8.45;5.10;;;27.60;44.30;;;;;;7643131;22;81034;-61
2023/07/09 13:03:07;;;;;;;5.32;4.30;;;27.60;45.70;;;;;;7639767;22;80219;-63
2023/07/09 13:06:08;;;;;;;8.25;4.68;;;27.50;43.50;;;;;;7644306;22;80038;-63
2023/07/09 13:09:08;;;;;;;5.82;4.43;;;27.50;44.40;;;;;;7644143;22;80463;-64
2023/07/09 13:12:09;;;;;;;6.65;4.28;;;27.50;43.90;;;;;;7640621;22;80998;-62
2023/07/09 13:15:09;;;;;;;5.72;4.35;;;27.50;43.70;;;;;;7642771;22;80314;-62
2023/07/09 13:18:10;;;;;;;8.90;4.60;;;27.50;44.10;;;;;;7641654;22;80168;-61
2023/07/09 13:21:10;;;;;;;5.88;4.05;;;27.40;46.70;;;;;;7639714;22;81418;-61
2023/07/09 13:24:11;;;;;;;6.55;4.38;;;27.40;43.90;;;;;;7642481;22;81134;-67
2023/07/09 13:27:11;;;;;;;6.00;4.53;;;27.40;43.90;;;;;;7640860;22;80279;-66
2023/07/09 13:30:12;;;;;;;6.78;4.40;;;27.40;43.00;;;;;;7644592;22;80325;-64
2023/07/09 13:33:12;;;;;;;11.57;4.38;;;27.30;43.00;;;;;;7643786;22;80425;-68
2023/07/09 13:36:13;;;;;;;4.50;4.10;;;27.40;44.70;;;;;;7643704;22;80490;-68
2023/07/09 13:39:15;;;;;;;8.27;4.88;;;27.30;43.50;;;;;;7640815;22;81034;-66
2023/07/09 13:42:16;;;;;;;6.15;4.30;;;27.40;43.00;;;;;;7642611;22;80010;-63
2023/07/09 13:45:17;;;;;;;5.60;4.40;;;27.30;43.90;;;;;;7645370;22;80418;-62
2023/07/09 13:48:17;;;;;;;4.47;3.90;;;27.40;46.50;;;;;;7643057;22;81187;-63
2023/07/09 13:51:18;;;;;;;9.27;4.28;;;27.40;45.10;;;;;;7642290;22;80086;-63
2023/07/09 13:54:18;;;;;;;6.25;4.70;;;27.30;45.10;;;;;;7642768;22;80569;-63
2023/07/09 13:57:19;;;;;;;7.47;4.72;;;27.30;44.30;;;;;;7642066;22;80728;-63
2023/07/09 14:00:20;;;;;;;10.52;4.72;;;27.30;45.60;;;;;;7643239;22;81545;-62
2023/07/09 14:03:20;;;;;;;6.03;4.63;;;27.20;45.00;;;;;;7641178;22;80373;-63
2023/07/09 14:06:21;;;;;;;6.07;4.72;;;27.20;45.60;;;;;;7641402;22;80930;-63
2023/07/09 14:09:21;;;;;;;8.10;4.03;;;27.20;45.50;;;;;;7640370;22;84087;-64
2023/07/09 14:12:22;;;;;;;4.72;3.53;;;27.20;44.30;;;;;;7614976;22;83073;-66
2023/07/09 14:15:22;;;;;;;4.65;4.20;;;27.30;45.10;;;;;;7641254;22;80912;-65
2023/07/09 14:18:23;;;;;;;7.25;4.03;;;27.30;45.30;;;;;;7641833;22;79950;-64
2023/07/09 14:21:23;;;;;;;5.75;4.20;;;27.40;46.10;;;;;;7640876;22;80530;-62
2023/07/09 14:24:24;;;;;;;7.45;4.22;;;27.40;45.60;;;;;;7641027;22;80367;-63
2023/07/09 14:27:24;;;;;;;4.82;3.70;;;27.30;44.20;;;;;;7640456;22;81017;-65
2023/07/09 14:30:25;;;;;;;7.20;3.90;;;27.30;44.80;;;;;;7642185;22;81330;-59
2023/07/09 14:33:25;;;;;;;4.80;4.15;;;27.30;45.30;;;;;;7641602;22;80416;-65
2023/07/09 14:36:26;;;;;;;5.20;4.18;;;27.30;44.20;;;;;;7641531;22;86086;-60
2023/07/09 14:39:26;;;;;;;4.85;3.90;;;27.30;44.80;;;;;;7638560;22;80981;-61
2023/07/09 14:42:27;;;;;;;5.88;4.00;;;27.30;45.10;;;;;;7643186;22;81285;-64
2023/07/09 14:45:31;;;;;;;4.40;3.70;;;27.30;44.50;;;;;;7641103;22;83625;-58
2023/07/09 14:48:32;;;;;;;5.75;4.60;;;27.30;44.20;;;;;;7640158;22;80134;-57
2023/07/09 14:51:33;;;;;;;9.10;4.28;;;27.30;45.60;;;;;;7642767;22;80152;-61
2023/07/09 14:54:33;;;;;;;7.28;4.32;;;27.30;44.90;;;;;;7631164;22;81578;-62
2023/07/09 14:57:36;;;;;;;7.90;4.53;;;27.30;44.80;;;;;;7635372;22;81156;-58
2023/07/09 15:00:36;;;;;;;7.22;4.45;;;27.30;43.70;;;;;;7637550;22;80380;-64
2023/07/09 15:03:36;;;;;;;7.70;4.55;;;27.30;44.20;;;;;;7607751;22;83392;-57
2023/07/09 15:06:37;;;;;;;11.93;4.30;;;27.40;44.70;;;;;;7633363;22;80657;-63
2023/07/09 15:09:38;;;;;;;10.25;4.05;;;27.30;43.00;;;;;;7636051;22;81416;-62
2023/07/09 15:12:38;;;;;;;5.60;4.25;;;27.30;43.00;;;;;;7639843;22;80291;-63
2023/07/09 15:15:39;;;;;;;5.22;4.00;;;27.40;43.60;;;;;;7638052;22;81425;-66
2023/07/09 15:18:39;;;;;;;7.35;4.30;;;27.40;43.40;;;;;;7638969;22;81395;-62
2023/07/09 15:21:40;;;;;;;7.90;4.13;;;27.40;43.30;;;;;;7641113;22;80516;-59
2023/07/09 15:24:40;;;;;;;5.80;4.10;;;27.40;43.50;;;;;;7642691;22;80168;-60
2023/07/09 15:27:41;;;;;;;5.00;4.05;;;27.40;43.70;;;;;;7641168;22;87471;-59
2023/07/09 15:30:41;;;;;;;9.95;5.07;;;27.40;44.70;;;;;;7642367;22;80052;-61
2023/07/09 15:33:42;;;;;;;9.45;5.53;;;27.40;45.80;;;;;;7643426;22;80292;-61
2023/07/09 15:36:43;;;;;;;6.22;4.85;;;27.50;45.80;;;;;;7641277;22;80504;-59
2023/07/09 15:39:44;;;;;;;9.27;4.20;;;27.50;45.30;;;;;;7642356;22;81151;-61